Time;durP1;ratioP1;P1;durP2;ratioP2;P2;SDS_P1;SDS_P2;PMS_P1;PMS_P2;Temp;Humidity;BMP_temperature;BMP_pressure;BME280_temperature;BME280_humidity;BME280_pressure;Samples;Min_cycle;Max_cycle;Signal;HPM_P1;HPM_P2
2021/01/19 00:01:41;;;;;;;3.83;2.23;;;4.80;1.00;;;;;;5048309;28;20259;-75
2021/01/19 00:07:50;;;;;;;1.80;1.70;;;4.80;1.00;;;;;;5053582;28;20658;-77
2021/01/19 00:10:29;;;;;;;8.55;2.67;;;4.70;1.00;;;;;;5036640;28;20165;-77
2021/01/19 00:16:23;;;;;;;6.30;2.22;;;4.70;1.00;;;;;;5036337;28;20226;-77
2021/01/19 00:18:49;;;;;;;2.25;1.80;;;;;;;;;;5033591;28;20248;-75
2021/01/19 00:21:17;;;;;;;2.92;1.73;;;4.70;1.00;;;;;;5033554;28;20180;-75
2021/01/19 00:23:43;;;;;;;7.65;2.20;;;4.70;1.00;;;;;;5047259;28;20175;-75
2021/01/19 00:26:09;;;;;;;2.63;2.07;;;;;;;;;;5053214;28;20227;-74
2021/01/19 00:31:56;;;;;;;2.55;2.20;;;4.50;1.00;;;;;;5052733;28;20425;-78
2021/01/19 00:34:22;;;;;;;2.70;1.80;;;4.50;1.00;;;;;;5037404;28;20176;-75
2021/01/19 00:37:16;;;;;;;2.90;1.93;;;4.40;1.00;;;;;;5053745;28;20156;-77
2021/01/19 00:39:42;;;;;;;2.10;1.75;;;4.40;1.00;;;;;;5052001;28;20475;-77
2021/01/19 00:48:53;;;;;;;2.67;1.75;;;4.30;1.00;;;;;;5042685;28;20571;-77
2021/01/19 00:51:58;;;;;;;5.93;1.70;;;4.20;1.00;;;;;;5033438;28;20242;-77
2021/01/19 00:54:24;;;;;;;2.10;1.70;;;4.10;1.00;;;;;;5033341;28;20156;-77
2021/01/19 00:56:53;;;;;;;2.70;2.23;;;4.10;1.00;;;;;;5033287;28;20165;-75
2021/01/19 00:59:52;;;;;;;3.75;1.98;;;4.10;1.00;;;;;;5040621;28;20172;-77
2021/01/19 01:02:36;;;;;;;2.90;1.70;;;4.00;1.00;;;;;;5053529;28;20607;-75
2021/01/19 01:05:22;;;;;;;4.47;2.65;;;3.90;1.00;;;;;;5053363;28;20179;-75
2021/01/19 01:07:53;;;;;;;14.75;1.95;;;3.90;1.00;;;;;;5043757;28;20196;-77
2021/01/19 01:10:19;;;;;;;8.15;1.70;;;4.00;1.00;;;;;;5033572;28;20199;-77
2021/01/19 01:12:45;;;;;;;7.77;2.10;;;4.00;1.00;;;;;;5033809;28;20600;-75
2021/01/19 01:15:14;;;;;;;3.50;1.83;;;4.00;1.00;;;;;;5036337;28;20164;-75
2021/01/19 01:17:41;;;;;;;3.45;2.10;;;4.00;1.00;;;;;;5038501;28;20508;-75
2021/01/19 01:20:08;;;;;;;3.88;2.65;;;4.00;1.00;;;;;;5033083;28;20168;-75
2021/01/19 01:22:44;;;;;;;2.25;2.00;;;4.10;1.00;;;;;;5045447;28;20177;-75
2021/01/19 01:25:17;;;;;;;3.78;2.00;;;4.10;1.00;;;;;;5032776;28;20651;-75
2021/01/19 01:27:44;;;;;;;4.85;2.20;;;4.10;1.00;;;;;;5033018;28;20223;-76
2021/01/19 01:30:12;;;;;;;2.35;1.48;;;4.10;1.00;;;;;;5033186;28;20200;-75
2021/01/19 01:32:50;;;;;;;2.03;1.77;;;4.10;1.00;;;;;;5052755;28;20217;-75
2021/01/19 01:38:38;;;;;;;2.30;1.92;;;4.10;1.00;;;;;;5034962;28;20530;-77
2021/01/19 01:41:11;;;;;;;5.03;1.73;;;4.10;1.00;;;;;;5039202;28;20185;-75
2021/01/19 01:43:53;;;;;;;4.30;1.70;;;4.10;1.00;;;;;;5049495;28;20172;-77
2021/01/19 01:46:19;;;;;;;2.88;1.85;;;4.00;1.00;;;;;;5037702;28;20222;-77
2021/01/19 01:49:11;;;;;;;2.30;1.60;;;4.00;1.00;;;;;;5036256;28;20267;-77
2021/01/19 01:54:59;;;;;;;2.70;1.77;;;3.90;1.00;;;;;;5056150;28;20163;-75
2021/01/19 02:00:50;;;;;;;1.63;1.50;;;3.90;1.00;;;;;;5037455;28;20267;-77
2021/01/19 02:03:29;;;;;;;0.85;0.82;;;3.90;1.00;;;;;;5036353;28;20219;-74
2021/01/19 02:09:21;;;;;;;4.03;1.70;;;3.90;1.00;;;;;;5036011;28;20319;-74
2021/01/19 02:11:50;;;;;;;3.08;1.70;;;4.00;1.00;;;;;;5034690;28;20263;-74
2021/01/19 02:14:35;;;;;;;2.05;1.27;;;4.00;1.00;;;;;;5055685;28;20526;-75
2021/01/19 02:17:22;;;;;;;3.80;1.30;;;4.00;1.00;;;;;;5045976;28;20171;-77
2021/01/19 02:20:34;;;;;;;1.45;1.30;;;4.00;1.00;;;;;;5036928;28;20164;-77
2021/01/19 02:23:45;;;;;;;2.75;1.70;;;4.00;1.00;;;;;;5035799;28;20165;-77
2021/01/19 02:26:34;;;;;;;1.23;1.13;;;4.10;1.00;;;;;;5014183;28;20580;-77
2021/01/19 02:29:55;;;;;;;7.55;1.65;;;4.10;1.00;;;;;;5025112;28;20201;-77
2021/01/19 02:33:00;;;;;;;10.00;2.03;;;4.00;1.00;;;;;;4955438;29;20480;-75
2021/01/19 02:35:58;;;;;;;3.03;1.52;;;4.00;1.00;;;;;;4955659;29;20235;-75
2021/01/19 02:45:05;;;;;;;4.97;1.30;;;4.10;1.00;;;;;;4950160;29;20238;-75
2021/01/19 02:47:31;;;;;;;3.65;1.48;;;4.10;1.00;;;;;;4955145;29;20274;-74
2021/01/19 02:50:22;;;;;;;1.40;1.30;;;4.20;1.00;;;;;;4953834;28;20286;-75
2021/01/19 02:52:49;;;;;;;1.95;1.40;;;4.10;1.00;;;;;;4955237;29;20430;-75
2021/01/19 02:55:18;;;;;;;3.47;2.05;;;4.10;1.00;;;;;;4955025;29;20179;-75
2021/01/19 02:58:28;;;;;;;4.90;1.38;;;4.10;1.00;;;;;;4954897;29;20218;-77
2021/01/19 03:01:34;;;;;;;1.70;1.55;;;4.10;1.00;;;;;;4954133;29;20191;-77
2021/01/19 03:04:01;;;;;;;2.22;1.73;;;4.10;1.00;;;;;;4972538;28;20716;-75
2021/01/19 03:06:31;;;;;;;4.90;1.85;;;4.10;1.00;;;;;;5007248;28;20176;-74
2021/01/19 03:08:59;;;;;;;2.75;2.00;;;4.20;1.00;;;;;;5034766;28;20235;-75
2021/01/19 03:14:47;;;;;;;3.33;2.13;;;4.20;1.00;;;;;;5035401;28;20243;-75
2021/01/19 03:20:35;;;;;;;6.38;1.73;;;4.00;1.00;;;;;;5034987;28;20160;-77
2021/01/19 03:23:02;;;;;;;4.10;1.83;;;4.00;1.00;;;;;;5053424;28;20164;-77
2021/01/19 03:25:41;;;;;;;1.92;1.15;;;4.10;1.00;;;;;;5047453;28;20247;-75
2021/01/19 03:28:17;;;;;;;1.73;1.35;;;4.10;1.00;;;;;;5034552;28;20691;-75
2021/01/19 03:30:47;;;;;;;1.75;1.58;;;4.00;1.00;;;;;;5035021;28;20183;-74
2021/01/19 03:33:23;;;;;;;1.95;1.60;;;4.00;1.00;;;;;;5034799;28;20153;-75
2021/01/19 03:35:49;;;;;;;4.15;1.80;;;4.00;1.00;;;;;;5048611;28;20171;-74
2021/01/19 03:38:16;;;;;;;3.05;2.00;;;;;;;;;;5032917;28;20853;-75
2021/01/19 03:40:47;;;;;;;11.05;2.40;;;4.00;1.00;;;;;;5048093;28;20635;-75
2021/01/19 03:43:18;;;;;;;3.15;1.80;;;4.00;1.00;;;;;;5046014;28;20538;-76
2021/01/19 03:45:53;;;;;;;5.63;2.08;;;4.00;1.00;;;;;;5034691;28;20647;-75
2021/01/19 03:51:47;;;;;;;3.03;1.98;;;4.00;1.00;;;;;;5034179;28;20218;-75
2021/01/19 03:54:17;;;;;;;4.18;1.88;;;4.00;1.00;;;;;;5037521;28;20168;-74
2021/01/19 03:56:53;;;;;;;4.20;1.60;;;4.00;1.00;;;;;;5034656;28;20224;-75
2021/01/19 04:02:41;;;;;;;3.47;1.90;;;3.90;1.00;;;;;;5053391;28;20194;-74
2021/01/19 04:05:52;;;;;;;4.05;2.55;;;3.90;1.00;;;;;;5052111;28;20176;-77
2021/01/19 04:15:29;;;;;;;3.55;2.30;;;3.80;1.00;;;;;;5034656;28;20176;-77
2021/01/19 04:18:34;;;;;;;4.07;1.70;;;3.80;1.00;;;;;;5034068;28;20165;-77
2021/01/19 04:24:29;;;;;;;2.55;1.70;;;3.80;1.00;;;;;;5033882;28;20160;-78
2021/01/19 04:26:55;;;;;;;2.47;2.15;;;3.80;1.00;;;;;;5033542;28;20179;-75
2021/01/19 04:29:21;;;;;;;2.70;2.07;;;;;;;;;;5042453;28;20203;-75
2021/01/19 04:35:09;;;;;;;2.47;1.42;;;3.80;1.00;;;;;;5035908;28;20509;-75
2021/01/19 04:37:47;;;;;;;8.90;2.47;;;3.80;1.00;;;;;;5033510;28;20255;-77
2021/01/19 04:40:13;;;;;;;7.88;2.00;;;;;;;;;;5044931;28;20806;-74
2021/01/19 04:43:28;;;;;;;2.15;1.48;;;3.80;1.00;;;;;;5041334;28;20646;-77
2021/01/19 04:49:17;;;;;;;2.45;1.60;;;3.80;1.00;;;;;;5033311;28;20242;-77
2021/01/19 04:55:24;;;;;;;5.38;2.10;;;3.90;1.00;;;;;;5041161;28;20661;-77
2021/01/19 04:58:07;;;;;;;1.52;1.42;;;3.80;1.00;;;;;;5033512;28;20642;-76
2021/01/19 05:04:25;;;;;;;2.75;1.95;;;3.90;1.00;;;;;;5048351;28;20210;-75
2021/01/19 05:07:27;;;;;;;1.92;1.60;;;3.90;1.00;;;;;;5045084;28;20179;-75
2021/01/19 05:10:12;;;;;;;7.05;1.98;;;3.90;1.00;;;;;;5033812;28;20204;-75
2021/01/19 05:12:43;;;;;;;2.55;1.50;;;3.90;1.00;;;;;;5033491;28;20638;-74
2021/01/19 05:15:17;;;;;;;5.68;1.88;;;3.90;1.00;;;;;;5037332;28;20164;-74
2021/01/19 05:18:17;;;;;;;5.88;2.17;;;3.90;1.00;;;;;;5037015;28;20590;-77
2021/01/19 05:20:49;;;;;;;2.40;1.50;;;3.90;1.00;;;;;;5037214;28;20191;-75
2021/01/19 05:23:22;;;;;;;2.03;1.92;;;3.90;1.00;;;;;;5037189;28;20527;-75
2021/01/19 05:30:04;;;;;;;2.03;1.73;;;3.80;1.00;;;;;;5053464;28;20345;-78
2021/01/19 05:32:59;;;;;;;1.40;1.30;;;3.80;1.00;;;;;;5056857;28;20156;-74
2021/01/19 05:35:35;;;;;;;9.23;1.70;;;3.70;1.00;;;;;;5056504;28;20183;-74
2021/01/19 05:38:05;;;;;;;3.08;1.45;;;;;;;;;;5044485;28;20240;-74
2021/01/19 05:40:44;;;;;;;2.28;1.30;;;3.50;1.00;;;;;;5052887;28;20172;-74
2021/01/19 05:43:35;;;;;;;3.03;1.15;;;3.60;1.00;;;;;;5047531;28;20304;-75
2021/01/19 05:46:00;;;;;;;7.60;2.35;;;3.60;1.00;;;;;;5041107;28;20878;-77
2021/01/19 05:48:58;;;;;;;1.60;1.30;;;3.50;1.00;;;;;;5036363;28;20229;-75
2021/01/19 05:51:27;;;;;;;2.10;1.50;;;3.50;1.00;;;;;;5036489;28;20204;-75
2021/01/19 05:54:05;;;;;;;4.78;1.70;;;3.50;1.00;;;;;;5042460;28;20251;-74
2021/01/19 05:56:37;;;;;;;6.47;1.50;;;3.50;1.00;;;;;;5045508;28;20584;-75
2021/01/19 05:59:50;;;;;;;2.80;1.70;;;3.50;1.00;;;;;;5044022;28;20196;-77
2021/01/19 06:02:18;;;;;;;1.60;1.30;;;3.50;1.00;;;;;;5034407;28;20188;-74
2021/01/19 06:04:49;;;;;;;3.42;1.65;;;3.50;1.00;;;;;;5019798;28;20267;-77
2021/01/19 06:10:36;;;;;;;2.35;1.40;;;3.50;1.00;;;;;;5025190;28;20217;-77
2021/01/19 06:13:20;;;;;;;7.43;2.03;;;3.50;1.00;;;;;;5033563;28;20239;-74
2021/01/19 06:16:28;;;;;;;1.92;1.42;;;3.50;1.00;;;;;;5033216;28;20164;-77
2021/01/19 06:18:55;;;;;;;2.85;1.60;;;;;;;;;;5026062;28;20185;-78
2021/01/19 06:21:34;;;;;;;3.22;1.45;;;3.60;1.00;;;;;;5021956;28;20177;-75
2021/01/19 06:24:11;;;;;;;10.15;1.52;;;3.60;1.00;;;;;;5013507;28;20223;-75
2021/01/19 06:26:41;;;;;;;2.95;1.35;;;3.60;1.00;;;;;;5023224;28;20215;-75
2021/01/19 06:32:14;;;;;;;12.88;2.78;;;3.60;1.00;;;;;;5027607;28;20186;-75
2021/01/19 06:34:41;;;;;;;10.27;2.15;;;3.70;1.00;;;;;;5024912;28;20176;-74
2021/01/19 06:37:09;;;;;;;3.30;1.63;;;3.70;1.00;;;;;;5032346;28;20227;-75
2021/01/19 06:39:41;;;;;;;3.17;1.58;;;3.70;1.00;;;;;;5046748;28;20657;-75
2021/01/19 06:42:47;;;;;;;2.28;1.70;;;3.60;1.00;;;;;;5043277;28;20686;-77
2021/01/19 06:45:41;;;;;;;6.00;1.45;;;3.60;1.00;;;;;;5040609;28;20176;-77
2021/01/19 06:51:54;;;;;;;3.08;1.95;;;3.60;1.00;;;;;;5055202;28;20261;-77
2021/01/19 06:54:57;;;;;;;3.47;2.35;;;3.70;1.00;;;;;;5036967;28;20164;-78
2021/01/19 07:04:25;;;;;;;2.67;1.10;;;3.70;1.00;;;;;;5042696;28;20238;-75
2021/01/19 07:07:04;;;;;;;2.38;1.50;;;3.70;1.00;;;;;;5035541;28;20164;-75
2021/01/19 07:10:02;;;;;;;3.55;1.52;;;3.70;1.00;;;;;;5033798;28;20291;-77
2021/01/19 07:13:01;;;;;;;5.35;1.73;;;3.70;1.00;;;;;;5052226;28;20159;-75
2021/01/19 07:16:23;;;;;;;1.08;0.82;;;3.70;1.00;;;;;;5052457;28;20180;-77
2021/01/19 07:19:18;;;;;;;12.90;1.48;;;3.70;1.00;;;;;;5039220;28;20172;-74
2021/01/19 07:22:06;;;;;;;2.72;1.40;;;3.70;1.00;;;;;;5048998;28;20179;-81
2021/01/19 07:24:46;;;;;;;3.92;1.85;;;3.70;1.00;;;;;;5035708;28;20176;-81
2021/01/19 07:27:29;;;;;;;1.30;1.20;;;;;;;;;;5052976;28;20171;-75
2021/01/19 07:33:25;;;;;;;1.70;1.35;;;3.70;1.00;;;;;;5043839;28;20674;-77
2021/01/19 07:35:50;;;;;;;4.38;2.00;;;3.70;1.00;;;;;;5045401;28;20176;-74
2021/01/19 07:38:35;;;;;;;1.50;1.03;;;3.70;1.00;;;;;;5034928;28;20187;-77
2021/01/19 07:41:00;;;;;;;3.92;1.90;;;3.80;1.00;;;;;;5034183;28;20191;-75
2021/01/19 07:43:34;;;;;;;2.60;1.90;;;3.80;1.00;;;;;;5033316;28;20639;-74
2021/01/19 07:46:53;;;;;;;5.47;1.20;;;3.80;1.00;;;;;;5037321;28;20210;-76
2021/01/19 07:49:32;;;;;;;5.10;2.28;;;3.80;1.00;;;;;;5033537;28;20275;-77
2021/01/19 07:52:35;;;;;;;1.60;1.42;;;3.80;1.00;;;;;;5054787;28;20188;-74
2021/01/19 07:55:22;;;;;;;5.85;1.60;;;3.80;1.00;;;;;;5036403;28;20227;-77
2021/01/19 07:57:52;;;;;;;3.30;1.73;;;3.80;1.00;;;;;;5043945;28;20647;-74
2021/01/19 08:00:29;;;;;;;2.92;1.30;;;3.80;1.00;;;;;;5053942;28;20180;-74
2021/01/19 08:03:06;;;;;;;4.75;1.77;;;3.80;1.00;;;;;;5053676;28;20647;-74
2021/01/19 08:09:18;;;;;;;3.35;1.55;;;3.80;1.00;;;;;;5053734;28;20245;-77
2021/01/19 08:11:45;;;;;;;2.35;1.45;;;3.80;1.00;;;;;;5052976;28;20152;-78
2021/01/19 08:14:12;;;;;;;6.57;1.92;;;3.70;1.00;;;;;;5053037;28;20164;-75
2021/01/19 08:16:54;;;;;;;1.65;1.55;;;3.80;1.00;;;;;;5046937;28;20226;-75
2021/01/19 08:19:19;;;;;;;11.25;1.80;;;3.90;1.00;;;;;;5050791;28;20178;-78
2021/01/19 08:21:53;;;;;;;2.97;2.00;;;3.80;1.00;;;;;;5053460;28;20239;-75
2021/01/19 08:24:29;;;;;;;1.30;1.13;;;;;;;;;;5051615;28;20422;-77
2021/01/19 08:27:00;;;;;;;5.55;2.15;;;3.70;1.00;;;;;;5046236;28;20263;-77
2021/01/19 08:29:47;;;;;;;4.05;1.50;;;3.70;1.00;;;;;;5041371;28;20264;-77
2021/01/19 08:32:24;;;;;;;13.48;3.20;;;3.70;1.00;;;;;;5038582;28;20174;-74
2021/01/19 08:35:17;;;;;;;1.60;1.25;;;3.70;1.00;;;;;;5041203;28;20183;-77
2021/01/19 08:37:50;;;;;;;4.30;1.80;;;3.70;1.00;;;;;;5046732;28;20677;-75
2021/01/19 08:43:38;;;;;;;1.08;1.05;;;3.60;1.00;;;;;;5033283;28;20624;-75
2021/01/19 08:46:23;;;;;;;2.50;1.15;;;3.50;1.00;;;;;;5033420;28;20157;-74
2021/01/19 08:49:03;;;;;;;1.75;1.42;;;3.50;1.00;;;;;;5035762;28;20199;-77
2021/01/19 08:51:29;;;;;;;2.90;1.50;;;3.60;1.00;;;;;;5037911;28;20175;-77
2021/01/19 08:54:28;;;;;;;1.67;1.50;;;3.50;1.00;;;;;;5037383;28;20160;-77
2021/01/19 08:56:59;;;;;;;0.85;0.85;;;3.40;1.00;;;;;;5037321;28;20180;-74
2021/01/19 08:59:29;;;;;;;3.42;1.80;;;;;;;;;;5037384;28;20207;-74
2021/01/19 09:01:59;;;;;;;2.88;1.38;;;3.30;1.00;;;;;;5037621;28;20611;-75
2021/01/19 09:04:29;;;;;;;1.33;1.00;;;3.20;1.00;;;;;;5037226;28;20168;-74
2021/01/19 09:07:10;;;;;;;1.40;1.30;;;3.20;1.00;;;;;;5037340;28;20172;-75
2021/01/19 09:09:35;;;;;;;3.80;1.70;;;3.20;1.00;;;;;;5037051;28;20596;-75
2021/01/19 09:12:01;;;;;;;7.27;1.40;;;;;;;;;;5040937;28;20255;-75
2021/01/19 09:14:28;;;;;;;1.30;1.20;;;;;;;;;;5056245;28;20217;-74
2021/01/19 09:16:59;;;;;;;2.90;1.23;;;;;;;;;;5057051;28;20247;-77
2021/01/19 09:19:25;;;;;;;2.75;1.25;;;;;;;;;;5055641;28;20639;-75
2021/01/19 09:21:53;;;;;;;1.00;1.00;;;;;;;;;;5053129;28;20178;-79
2021/01/19 09:24:21;;;;;;;1.25;1.15;;;2.90;1.00;;;;;;5051114;28;20403;-75
2021/01/19 09:27:01;;;;;;;7.43;1.85;;;3.00;1.00;;;;;;5041392;28;20241;-75
2021/01/19 09:29:29;;;;;;;4.03;1.85;;;2.90;1.00;;;;;;5046865;28;20353;-75
2021/01/19 09:31:57;;;;;;;2.33;1.40;;;2.80;1.00;;;;;;5050174;28;20172;-78
2021/01/19 09:34:24;;;;;;;4.20;2.10;;;2.90;1.00;;;;;;5056126;28;20251;-76
2021/01/19 09:36:49;;;;;;;1.27;1.25;;;2.80;1.00;;;;;;5044184;28;20184;-78
2021/01/19 09:39:28;;;;;;;1.83;1.60;;;2.90;1.00;;;;;;5034833;28;20194;-78
2021/01/19 09:41:56;;;;;;;4.95;1.77;;;2.90;1.00;;;;;;5039841;28;20174;-78
2021/01/19 09:44:23;;;;;;;3.53;1.15;;;2.90;1.00;;;;;;5042190;28;20251;-78
2021/01/19 09:46:52;;;;;;;2.97;1.40;;;2.90;1.00;;;;;;5055202;28;20183;-78
2021/01/19 09:49:23;;;;;;;7.75;1.60;;;2.90;1.00;;;;;;5054286;28;20242;-75
2021/01/19 09:51:49;;;;;;;1.60;1.50;;;;;;;;;;5049138;28;20171;-78
2021/01/19 09:54:24;;;;;;;15.43;1.38;;;2.90;1.00;;;;;;5034060;28;20203;-77
2021/01/19 09:56:56;;;;;;;1.55;1.45;;;2.90;1.00;;;;;;5055287;28;20172;-78
2021/01/19 09:59:26;;;;;;;4.07;1.58;;;2.90;1.00;;;;;;5053395;28;20172;-78
2021/01/19 10:01:56;;;;;;;1.15;1.10;;;2.90;1.00;;;;;;5046677;28;20526;-75
2021/01/19 10:04:23;;;;;;;1.45;1.10;;;2.90;1.00;;;;;;5035872;28;20164;-77
2021/01/19 10:07:05;;;;;;;3.28;1.80;;;2.90;1.00;;;;;;5041946;28;20172;-78
2021/01/19 10:09:32;;;;;;;2.28;1.00;;;3.00;1.00;;;;;;5041912;28;20202;-77
2021/01/19 10:12:00;;;;;;;3.40;1.08;;;3.00;1.00;;;;;;5040895;28;20196;-77
2021/01/19 10:14:32;;;;;;;2.78;1.83;;;3.10;1.00;;;;;;5048363;28;20530;-77
2021/01/19 10:16:58;;;;;;;2.67;1.42;;;;;;;;;;5037871;28;20207;-79
2021/01/19 10:19:26;;;;;;;1.92;1.30;;;3.20;1.00;;;;;;5041136;28;20749;-78
2021/01/19 10:21:57;;;;;;;3.25;1.27;;;3.20;1.00;;;;;;5037521;28;20180;-78
2021/01/19 10:24:24;;;;;;;2.38;1.60;;;;;;;;;;5044912;28;20259;-78
2021/01/19 10:27:07;;;;;;;1.52;1.10;;;3.20;1.00;;;;;;5042294;28;20199;-78
2021/01/19 10:29:41;;;;;;;2.45;1.35;;;3.30;1.00;;;;;;5048279;28;20747;-75
2021/01/19 10:32:11;;;;;;;4.65;1.90;;;3.50;1.00;;;;;;5054622;28;20160;-75
2021/01/19 10:34:38;;;;;;;8.32;1.88;;;3.50;1.00;;;;;;5054983;28;20160;-78
2021/01/19 10:37:04;;;;;;;3.17;1.58;;;;;;;;;;5051466;28;20174;-78
2021/01/19 10:39:30;;;;;;;10.97;2.13;;;;;;;;;;5040025;28;20184;-78
2021/01/19 10:41:57;;;;;;;8.32;1.92;;;3.50;1.00;;;;;;5047687;28;20484;-78
2021/01/19 10:44:24;;;;;;;3.08;1.98;;;3.50;1.00;;;;;;5034307;28;20172;-78
2021/01/19 10:47:00;;;;;;;1.45;1.35;;;3.60;1.00;;;;;;5040730;28;20623;-78
2021/01/19 10:49:30;;;;;;;1.48;1.00;;;3.60;1.00;;;;;;5044855;28;20203;-78
2021/01/19 10:51:57;;;;;;;2.92;1.30;;;3.60;1.00;;;;;;5054460;28;20171;-78
2021/01/19 10:54:24;;;;;;;3.40;1.58;;;3.50;1.00;;;;;;5048460;28;20180;-78
2021/01/19 10:57:04;;;;;;;2.70;1.75;;;3.40;1.00;;;;;;5034455;28;20546;-75
2021/01/19 10:59:30;;;;;;;1.55;1.40;;;;;;;;;;5040221;28;20229;-76
2021/01/19 11:01:56;;;;;;;2.17;1.35;;;;;;;;;;5040925;28;20180;-76
2021/01/19 11:04:22;;;;;;;2.75;1.20;;;3.30;1.00;;;;;;5045389;28;20278;-78
2021/01/19 11:06:48;;;;;;;1.50;1.40;;;3.30;1.00;;;;;;5046988;28;20212;-78
2021/01/19 11:09:14;;;;;;;3.43;1.47;;;;;;;;;;5038895;28;20203;-76
2021/01/19 11:11:40;;;;;;;13.57;2.10;;;3.20;1.00;;;;;;5050243;28;20576;-75
2021/01/19 11:14:07;;;;;;;5.00;2.30;;;;;;;;;;5033987;28;20197;-75
2021/01/19 11:16:42;;;;;;;2.47;1.52;;;3.20;1.00;;;;;;5041439;28;20543;-76
2021/01/19 11:19:14;;;;;;;1.80;1.45;;;3.20;1.00;;;;;;5051866;28;20187;-78
2021/01/19 11:21:41;;;;;;;2.03;1.45;;;3.20;1.00;;;;;;5042460;28;20298;-76
2021/01/19 11:24:08;;;;;;;3.20;1.48;;;3.30;1.00;;;;;;5051788;28;20655;-75
2021/01/19 11:26:39;;;;;;;2.53;1.67;;;3.30;1.00;;;;;;5049754;28;20531;-75
2021/01/19 11:29:06;;;;;;;1.73;1.63;;;;;;;;;;5039069;28;20227;-77
2021/01/19 11:31:32;;;;;;;1.48;1.38;;;3.20;1.00;;;;;;5040224;28;20178;-78
2021/01/19 11:34:04;;;;;;;2.00;1.40;;;3.20;1.00;;;;;;5033895;28;20252;-78
2021/01/19 11:36:37;;;;;;;1.67;1.40;;;3.20;1.00;;;;;;5033464;28;20149;-79
2021/01/19 11:39:06;;;;;;;1.50;1.10;;;3.20;1.00;;;;;;5043820;28;20192;-78
2021/01/19 11:41:32;;;;;;;6.85;1.65;;;3.20;1.00;;;;;;5048137;28;20655;-78
2021/01/19 11:43:58;;;;;;;1.25;1.10;;;;;;;;;;5043940;28;20179;-78
2021/01/19 11:46:26;;;;;;;1.73;1.40;;;3.20;1.00;;;;;;5050011;28;20168;-78
2021/01/19 11:48:53;;;;;;;5.95;1.88;;;3.20;1.00;;;;;;5051853;28;20195;-78
2021/01/19 11:51:26;;;;;;;3.17;1.45;;;3.10;1.00;;;;;;5041725;28;20172;-78
2021/01/19 11:53:54;;;;;;;1.55;1.45;;;3.20;1.00;;;;;;5033349;28;20180;-77
2021/01/19 11:56:21;;;;;;;2.90;1.30;;;;;;;;;;5034921;28;20248;-78
2021/01/19 11:58:47;;;;;;;3.75;1.98;;;;;;;;;;5053068;28;20497;-78
2021/01/19 12:01:18;;;;;;;3.55;2.40;;;3.30;1.00;;;;;;5052992;28;20229;-77
2021/01/19 12:04:08;;;;;;;3.40;2.10;;;3.40;1.00;;;;;;5044484;28;20183;-76
2021/01/19 12:06:39;;;;;;;11.88;2.20;;;3.50;1.00;;;;;;5033461;28;20263;-76
2021/01/19 12:09:06;;;;;;;5.15;1.75;;;3.50;1.00;;;;;;5039403;28;20204;-76
2021/01/19 12:11:32;;;;;;;3.35;1.33;;;3.50;1.00;;;;;;5052930;28;20159;-77
2021/01/19 12:13:58;;;;;;;6.53;1.40;;;;;;;;;;5044188;28;20180;-78
2021/01/19 12:16:24;;;;;;;5.38;1.52;;;3.50;1.00;;;;;;5034761;28;20172;-78
2021/01/19 12:18:53;;;;;;;2.63;1.52;;;3.50;1.00;;;;;;5032964;28;20192;-75
2021/01/19 12:21:19;;;;;;;1.70;1.27;;;;;;;;;;5035588;28;20175;-78
2021/01/19 12:23:46;;;;;;;0.80;0.80;;;3.50;1.00;;;;;;5040778;28;20168;-78
2021/01/19 12:26:12;;;;;;;2.10;1.90;;;;;;;;;;5052757;28;20611;-76
2021/01/19 12:28:38;;;;;;;7.75;1.95;;;3.60;1.00;;;;;;5040514;28;20590;-76
2021/01/19 12:31:04;;;;;;;1.53;1.43;;;;;;;;;;5043798;28;20174;-76
2021/01/19 12:33:30;;;;;;;1.10;0.90;;;;;;;;;;5044642;28;20222;-76
2021/01/19 12:35:56;;;;;;;1.30;1.20;;;;;;;;;;5050905;28;20180;-76
2021/01/19 12:38:22;;;;;;;1.63;1.50;;;;;;;;;;5051401;28;20182;-76
2021/01/19 12:40:48;;;;;;;5.53;1.85;;;3.70;1.00;;;;;;5033081;28;20180;-76
2021/01/19 12:43:17;;;;;;;6.82;2.10;;;3.80;1.00;;;;;;5032567;28;20173;-75
2021/01/19 12:45:44;;;;;;;4.80;2.35;;;3.80;1.00;;;;;;5046216;28;20665;-76
2021/01/19 12:48:10;;;;;;;2.65;1.45;;;3.90;1.00;;;;;;5052404;28;20254;-76
2021/01/19 12:50:36;;;;;;;12.07;2.83;;;;;;;;;;5052886;28;20674;-76
2021/01/19 12:53:04;;;;;;;2.92;2.08;;;4.10;1.00;;;;;;5047467;28;20410;-76
2021/01/19 12:55:31;;;;;;;2.30;1.63;;;4.10;1.00;;;;;;5052358;28;20156;-77
2021/01/19 12:57:57;;;;;;;8.35;2.08;;;;;;;;;;5051762;28;20184;-78
2021/01/19 13:00:23;;;;;;;7.18;1.95;;;4.10;1.00;;;;;;5051176;28;20187;-78
2021/01/19 13:02:49;;;;;;;4.63;1.20;;;;;;;;;;5052391;28;20635;-76
2021/01/19 13:05:15;;;;;;;2.40;1.80;;;;;;;;;;5052586;28;20245;-77
2021/01/19 13:07:42;;;;;;;2.00;1.27;;;4.20;1.00;;;;;;5052310;28;20394;-78
2021/01/19 13:10:09;;;;;;;3.25;2.00;;;4.10;1.00;;;;;;5052169;28;20461;-78
2021/01/19 13:12:35;;;;;;;3.97;2.42;;;;;;;;;;5040753;28;20172;-78
2021/01/19 13:15:01;;;;;;;10.05;2.33;;;;;;;;;;5047482;28;20200;-78
2021/01/19 13:17:27;;;;;;;1.83;1.38;;;;;;;;;;5032471;28;20287;-78
2021/01/19 13:19:53;;;;;;;2.43;1.30;;;;;;;;;;5032598;28;20642;-76
2021/01/19 13:22:19;;;;;;;2.78;1.58;;;4.10;1.00;;;;;;5045794;28;20440;-75
2021/01/19 13:24:45;;;;;;;2.53;1.30;;;;;;;;;;5032330;28;20175;-77
2021/01/19 13:27:12;;;;;;;11.35;2.55;;;;;;;;;;5036142;28;20251;-78
2021/01/19 13:29:38;;;;;;;3.20;1.30;;;;;;;;;;5033821;28;20208;-78
2021/01/19 13:32:04;;;;;;;2.67;1.58;;;;;;;;;;5032026;28;20686;-78
2021/01/19 13:34:30;;;;;;;2.05;1.75;;;;;;;;;;5049055;28;20176;-78
2021/01/19 13:36:57;;;;;;;6.55;1.63;;;;;;;;;;5035881;28;20157;-78
2021/01/19 13:39:23;;;;;;;3.15;1.55;;;4.40;1.00;;;;;;5049303;28;20197;-78
2021/01/19 13:41:57;;;;;;;1.98;1.42;;;4.40;1.00;;;;;;5039199;28;20242;-76
2021/01/19 13:44:24;;;;;;;1.33;1.17;;;4.40;1.00;;;;;;5040691;28;20199;-78
2021/01/19 13:46:50;;;;;;;3.60;1.90;;;;;;;;;;5036040;28;20173;-75
2021/01/19 13:49:16;;;;;;;4.30;2.20;;;;;;;;;;5037718;28;20196;-76
2021/01/19 13:51:43;;;;;;;0.75;0.75;;;4.50;1.00;;;;;;5055893;28;20162;-79
2021/01/19 13:54:09;;;;;;;4.20;1.85;;;4.40;1.00;;;;;;5044231;28;20184;-75
2021/01/19 13:56:35;;;;;;;4.83;1.20;;;;;;;;;;5035481;28;20176;-76
2021/01/19 13:59:00;;;;;;;2.25;1.45;;;4.50;1.00;;;;;;5036441;28;20220;-76
2021/01/19 14:01:28;;;;;;;3.47;1.00;;;;;;;;;;5035381;28;20196;-76
2021/01/19 14:03:54;;;;;;;3.33;1.98;;;4.60;1.00;;;;;;5035326;28;20164;-75
2021/01/19 14:06:21;;;;;;;1.85;1.50;;;4.50;1.00;;;;;;5044310;28;20258;-76
2021/01/19 14:08:47;;;;;;;1.50;1.40;;;;;;;;;;5054485;28;20278;-78
2021/01/19 14:11:13;;;;;;;2.42;1.60;;;;;;;;;;5050814;28;20579;-79
2021/01/19 14:13:39;;;;;;;1.70;1.60;;;;;;;;;;5041456;28;20259;-79
2021/01/19 14:16:29;;;;;;;3.95;1.85;;;4.50;1.00;;;;;;5035181;28;20172;-75
2021/01/19 14:19:29;;;;;;;9.32;1.35;;;4.50;1.00;;;;;;5037163;28;20624;-76
2021/01/19 14:22:05;;;;;;;1.85;1.35;;;4.60;1.00;;;;;;5045882;28;20168;-75
2021/01/19 14:24:41;;;;;;;1.08;0.90;;;4.60;1.00;;;;;;5055577;28;20182;-76
2021/01/19 14:27:41;;;;;;;2.63;1.63;;;4.60;1.00;;;;;;5047380;28;20659;-75
2021/01/19 14:30:12;;;;;;;6.03;2.03;;;4.60;1.00;;;;;;5036361;28;20192;-75
2021/01/19 14:32:45;;;;;;;2.13;1.20;;;4.60;1.00;;;;;;5053191;28;20180;-76
2021/01/19 14:35:29;;;;;;;3.20;1.35;;;;;;;;;;5045212;28;20184;-78
2021/01/19 14:38:11;;;;;;;3.25;1.30;;;4.60;1.00;;;;;;5044133;28;20176;-80
2021/01/19 14:40:54;;;;;;;1.15;1.05;;;;;;;;;;5043276;28;20182;-78
2021/01/19 14:43:53;;;;;;;1.23;1.23;;;4.60;1.00;;;;;;5044541;28;20207;-77
2021/01/19 14:46:47;;;;;;;1.30;1.20;;;4.70;1.00;;;;;;5033932;28;20180;-77
2021/01/19 14:49:41;;;;;;;6.78;1.80;;;4.70;1.00;;;;;;5035593;28;20223;-76
2021/01/19 14:52:23;;;;;;;1.10;1.00;;;4.70;1.00;;;;;;5035790;28;20153;-77
2021/01/19 14:54:57;;;;;;;1.90;1.23;;;4.70;1.00;;;;;;5036366;28;20161;-75
2021/01/19 14:57:43;;;;;;;1.73;1.60;;;4.80;1.00;;;;;;5055158;28;20181;-76
2021/01/19 15:00:29;;;;;;;3.10;1.10;;;4.80;1.00;;;;;;5047347;28;20643;-82
2021/01/19 15:02:55;;;;;;;2.50;1.10;;;;;;;;;;5054277;28;20183;-78
2021/01/19 15:05:21;;;;;;;1.45;1.35;;;4.80;1.00;;;;;;5035653;28;20192;-81
2021/01/19 15:07:56;;;;;;;3.03;1.10;;;4.80;1.00;;;;;;5048705;28;20272;-82
2021/01/19 15:10:26;;;;;;;5.95;1.30;;;4.80;1.00;;;;;;5035359;28;20910;-76
2021/01/19 15:12:55;;;;;;;17.92;1.45;;;4.80;1.00;;;;;;5048411;28;20180;-72
2021/01/19 15:15:22;;;;;;;3.25;1.50;;;;;;;;;;5037545;28;20577;-78
2021/01/19 15:17:50;;;;;;;3.03;1.23;;;4.80;1.00;;;;;;5054058;28;20178;-76
2021/01/19 15:20:17;;;;;;;2.67;1.02;;;4.90;1.00;;;;;;5044020;28;20184;-73
2021/01/19 15:26:17;;;;;;;2.95;1.27;;;4.90;1.00;;;;;;5053115;28;20233;-76
2021/01/19 15:28:43;;;;;;;3.70;1.80;;;4.80;1.00;;;;;;5045869;28;20280;-78
2021/01/19 15:31:59;;;;;;;1.30;1.20;;;4.90;1.00;;;;;;5037054;28;20643;-77
2021/01/19 15:34:31;;;;;;;1.95;1.52;;;4.90;1.00;;;;;;5042530;28;20175;-77
2021/01/19 15:37:29;;;;;;;1.90;1.38;;;4.90;1.00;;;;;;5048128;28;20222;-77
2021/01/19 15:40:29;;;;;;;3.10;1.20;;;4.80;1.00;;;;;;5043948;28;20163;-78
2021/01/19 15:42:55;;;;;;;2.13;1.85;;;4.90;1.00;;;;;;5050287;28;20179;-77
2021/01/19 15:45:21;;;;;;;1.40;1.30;;;4.90;1.00;;;;;;5054260;28;20183;-78
2021/01/19 15:47:47;;;;;;;1.50;1.40;;;4.90;1.00;;;;;;5054109;28;20164;-79
2021/01/19 15:50:13;;;;;;;1.52;1.35;;;4.90;1.00;;;;;;5036128;28;20534;-78
2021/01/19 15:52:39;;;;;;;2.93;1.70;;;4.90;1.00;;;;;;5036160;28;20298;-75